createdAt,value
2022-10-24T00:00:30.284Z,2.50
2022-10-24T00:05:33.865Z,2.30
2022-10-24T00:10:42.459Z,2.40
2022-10-24T00:15:49.184Z,2.30
2022-10-24T00:20:52.757Z,2.40
2022-10-24T00:26:01.939Z,2.63
2022-10-24T00:31:06.998Z,2.45
2022-10-24T00:36:13.538Z,2.22
2022-10-24T00:41:25.726Z,2.40
2022-10-24T00:46:29.515Z,2.10
2022-10-24T00:51:35.562Z,2.45
2022-10-24T00:56:46.945Z,2.40
2022-10-24T01:01:50.672Z,2.00
2022-10-24T01:07:12.676Z,2.10
2022-10-24T01:12:29.554Z,2.13
2022-10-24T01:17:44.031Z,2.00
2022-10-24T01:23:09.536Z,2.30
2022-10-24T01:28:20.022Z,1.98
2022-10-24T01:33:32.141Z,1.95
2022-10-24T01:38:42.708Z,2.00
2022-10-24T01:43:54.643Z,1.90
2022-10-24T01:49:07.097Z,2.20
2022-10-24T01:54:13.560Z,1.90
2022-10-24T01:59:45.882Z,1.83
2022-10-24T02:04:59.745Z,2.00
2022-10-24T02:10:11.374Z,1.63
2022-10-24T02:15:23.485Z,2.10
2022-10-24T02:20:36.494Z,1.95
2022-10-24T02:31:00.313Z,1.70
2022-10-24T02:36:07.578Z,1.70
2022-10-24T02:41:19.838Z,1.88
2022-10-24T02:46:24.911Z,1.60
2022-10-24T02:51:35.668Z,1.70
2022-10-24T02:56:45.397Z,1.70
2022-10-24T03:01:49.089Z,1.70
2022-10-24T03:06:55.231Z,1.80
2022-10-24T03:11:58.733Z,1.60
2022-10-24T03:17:02.431Z,1.40
2022-10-24T03:22:07.430Z,1.50
2022-10-24T03:27:10.991Z,1.70
2022-10-24T03:32:15.240Z,1.67
2022-10-24T03:37:20.609Z,1.65
2022-10-24T03:42:24.305Z,1.50
2022-10-24T03:47:27.840Z,1.40
2022-10-24T03:52:33.668Z,1.45
2022-10-24T03:57:37.276Z,1.58
2022-10-24T04:02:43.821Z,1.60
2022-10-24T04:07:48.926Z,1.17
2022-10-24T04:12:52.517Z,1.23
2022-10-24T04:17:56.114Z,1.48
2022-10-24T04:23:03.754Z,1.40
2022-10-24T04:28:08.789Z,1.58
2022-10-24T04:33:12.637Z,1.40
2022-10-24T04:38:17.937Z,1.50
2022-10-24T04:43:23.238Z,1.50
2022-10-24T04:48:26.888Z,1.40
2022-10-24T04:53:32.263Z,1.40
2022-10-24T04:58:35.788Z,1.35
2022-10-24T05:03:39.260Z,1.30
2022-10-24T05:08:44.171Z,1.30
2022-10-24T05:13:47.615Z,1.30
2022-10-24T05:18:51.484Z,1.30
2022-10-24T05:23:56.441Z,1.30
2022-10-24T05:29:00.128Z,1.50
2022-10-24T05:34:03.985Z,1.35
2022-10-24T05:39:08.920Z,1.30
2022-10-24T05:44:13.876Z,1.35
2022-10-24T05:49:17.511Z,1.38
2022-10-24T05:54:22.511Z,1.38
2022-10-24T05:59:26.068Z,1.23
2022-10-24T06:04:29.505Z,1.27
2022-10-24T06:09:34.334Z,1.10
2022-10-24T06:14:38.300Z,1.40
2022-10-24T06:19:43.941Z,1.25
2022-10-24T06:24:48.890Z,1.10
2022-10-24T06:29:52.447Z,1.30
2022-10-24T06:34:55.921Z,1.42
2022-10-24T06:40:01.014Z,1.15
2022-10-24T06:45:06.115Z,1.17
2022-10-24T06:50:10.762Z,1.10
2022-10-24T06:55:15.727Z,1.20
2022-10-24T07:00:20.101Z,1.10
2022-10-24T07:05:23.640Z,1.10
2022-10-24T07:10:28.624Z,1.10
2022-10-24T07:15:32.258Z,1.08
2022-10-24T07:20:35.765Z,1.27
2022-10-24T07:25:41.746Z,1.40
2022-10-24T07:30:46.116Z,1.10
2022-10-24T07:35:49.632Z,1.10
2022-10-24T07:40:54.707Z,1.10
2022-10-24T07:45:59.287Z,1.10
2022-10-24T07:51:07.885Z,1.10
2022-10-24T07:56:16.183Z,1.48
2022-10-24T08:01:23.894Z,1.70
2022-10-24T08:06:32.151Z,2.08
2022-10-24T08:11:37.181Z,1.58
2022-10-24T08:16:43.552Z,2.03
2022-10-24T08:21:47.088Z,1.80
2022-10-24T08:26:52.039Z,1.90
2022-10-24T08:31:58.622Z,2.20
2022-10-24T08:37:02.751Z,1.80
2022-10-24T08:42:12.925Z,1.80
2022-10-24T08:47:30.355Z,1.90
2022-10-24T08:52:38.450Z,1.90
2022-10-24T08:57:52.140Z,2.20
2022-10-24T09:03:04.485Z,2.28
2022-10-24T09:08:24.416Z,1.88
2022-10-24T09:13:31.459Z,1.98
2022-10-24T09:18:40.668Z,2.10
2022-10-24T09:23:45.523Z,1.80
2022-10-24T09:28:50.431Z,2.20
2022-10-24T09:33:56.609Z,1.90
2022-10-24T09:39:34.645Z,1.92
2022-10-24T09:44:43.893Z,2.00
2022-10-24T09:49:48.333Z,2.03
2022-10-24T09:55:17.629Z,2.05
2022-10-24T10:00:30.639Z,3.70
2022-10-24T10:05:48.987Z,3.28
2022-10-24T10:11:09.605Z,2.60
2022-10-24T10:16:25.179Z,2.65
2022-10-24T10:21:28.945Z,2.80
2022-10-24T10:26:45.725Z,2.90
2022-10-24T10:31:59.707Z,2.70
2022-10-24T10:37:26.169Z,2.03
2022-10-24T10:42:39.822Z,2.60
2022-10-24T10:48:02.783Z,2.30
2022-10-24T10:53:28.699Z,2.10
2022-10-24T10:58:45.271Z,2.30
2022-10-24T11:03:59.098Z,2.10
2022-10-24T11:09:28.115Z,2.17
2022-10-24T11:14:36.337Z,2.80
2022-10-24T11:19:55.240Z,2.40
2022-10-24T11:25:07.360Z,2.60
2022-10-24T11:30:17.856Z,2.28
2022-10-24T11:35:33.186Z,2.53
2022-10-24T11:40:41.578Z,2.00
2022-10-24T11:45:54.765Z,2.37
2022-10-24T11:51:10.925Z,2.10
2022-10-24T11:56:23.614Z,2.08
2022-10-24T12:02:39.049Z,2.05
2022-10-24T12:43:28.816Z,2.10
2022-10-24T12:54:05.693Z,1.77
2022-10-24T12:59:22.676Z,1.60
2022-10-24T13:04:55.434Z,2.00
2022-10-24T13:10:26.093Z,1.63
2022-10-24T13:15:45.233Z,1.50
2022-10-24T13:20:50.882Z,1.67
2022-10-24T13:25:57.334Z,1.70
2022-10-24T13:31:44.290Z,1.60
2022-10-24T13:36:53.480Z,1.42
2022-10-24T13:42:05.058Z,1.50
2022-10-24T13:47:20.476Z,1.52
2022-10-24T13:52:33.775Z,1.45
2022-10-24T13:57:54.200Z,1.67
2022-10-24T14:03:02.389Z,1.55
2022-10-24T14:08:09.680Z,1.60
2022-10-24T14:13:17.838Z,1.65
2022-10-24T14:18:24.040Z,1.48
2022-10-24T14:23:34.719Z,1.52
2022-10-24T14:28:45.946Z,1.50
2022-10-24T14:33:53.699Z,1.60
2022-10-24T14:39:01.122Z,1.40
2022-10-24T14:44:06.967Z,1.33
2022-10-24T14:49:33.859Z,1.40
2022-10-24T14:54:38.821Z,1.60
2022-10-24T14:59:47.907Z,1.10
2022-10-24T15:04:54.460Z,1.40
2022-10-24T15:10:02.324Z,1.10
2022-10-24T15:15:33.235Z,1.10
2022-10-24T15:20:42.089Z,1.40
2022-10-24T15:25:45.734Z,1.27
2022-10-24T15:30:49.328Z,1.20
2022-10-24T15:35:54.169Z,1.30
2022-10-24T15:40:58.490Z,1.17
2022-10-24T15:46:02.130Z,1.02
2022-10-24T15:51:07.756Z,1.10
2022-10-24T15:56:12.810Z,1.10
2022-10-24T16:01:31.557Z,1.00
2022-10-24T16:06:37.078Z,1.20
2022-10-24T16:11:40.702Z,1.10
2022-10-24T16:16:44.524Z,1.00
2022-10-24T16:21:49.572Z,1.10
2022-10-24T16:26:53.309Z,1.27
2022-10-24T16:31:56.755Z,1.05
2022-10-24T16:37:01.755Z,1.20
2022-10-24T16:42:07.311Z,0.90
2022-10-24T16:47:10.997Z,1.27
2022-10-24T16:52:16.165Z,0.98
2022-10-24T16:57:19.831Z,1.00
2022-10-24T17:02:23.637Z,1.10
2022-10-24T17:07:28.571Z,1.10
2022-10-24T17:12:32.373Z,0.90
2022-10-24T17:17:36.064Z,1.00
2022-10-24T17:22:45.270Z,0.90
2022-10-24T17:27:50.245Z,1.00
2022-10-24T17:32:54.362Z,1.00
2022-10-24T17:38:11.640Z,0.90
2022-10-24T17:43:22.904Z,0.93
2022-10-24T17:48:26.881Z,1.00
2022-10-24T17:53:31.731Z,1.05
2022-10-24T17:58:35.215Z,1.00
2022-10-24T18:03:38.872Z,0.93
2022-10-24T18:08:43.954Z,1.00
2022-10-24T18:13:47.484Z,0.90
2022-10-24T18:18:51.024Z,0.90
2022-10-24T18:23:57.124Z,0.80
2022-10-24T18:29:00.894Z,0.98
2022-10-24T18:34:06.343Z,1.00
2022-10-24T18:39:13.798Z,0.75
2022-10-24T18:44:28.403Z,0.80
2022-10-24T18:49:35.027Z,1.10
2022-10-24T18:54:51.190Z,2.13
2022-10-24T18:59:55.579Z,1.75
2022-10-24T19:05:20.176Z,2.08
2022-10-24T19:10:28.406Z,2.38
2022-10-24T19:15:32.637Z,3.20
2022-10-24T19:20:36.244Z,3.70
2022-10-24T19:25:41.155Z,4.15
2022-10-24T19:30:45.765Z,3.55
2022-10-24T19:35:49.303Z,14.57
2022-10-24T19:40:56.529Z,73.22
2022-10-24T19:46:19.275Z,66.03
2022-10-24T19:51:25.232Z,62.67
2022-10-24T19:56:31.397Z,61.67
2022-10-24T20:01:35.197Z,58.33
2022-10-24T20:06:39.788Z,58.03
2022-10-24T20:11:44.945Z,56.42
2022-10-24T20:16:48.448Z,51.70
2022-10-24T20:21:52.056Z,53.15
2022-10-24T20:26:57.242Z,48.15
2022-10-24T20:32:00.877Z,50.67
2022-10-24T20:37:04.680Z,49.80
2022-10-24T20:42:09.597Z,48.60
2022-10-24T20:47:13.194Z,48.35
2022-10-24T20:52:16.862Z,47.97
2022-10-24T20:57:22.051Z,48.08
2022-10-24T21:02:25.742Z,47.70
2022-10-24T21:07:29.602Z,45.08
2022-10-24T21:12:34.629Z,39.38
2022-10-24T21:17:38.119Z,38.20
2022-10-24T21:22:41.749Z,37.63
2022-10-24T21:27:46.929Z,36.75
2022-10-24T21:32:50.625Z,36.40
2022-10-24T21:37:54.952Z,35.10
2022-10-24T21:43:02.982Z,34.13
2022-10-24T21:48:07.215Z,34.10
2022-10-24T21:53:11.040Z,32.40
2022-10-24T21:58:16.126Z,30.00
2022-10-24T22:03:19.634Z,30.50
2022-10-24T22:08:24.478Z,28.95
2022-10-24T22:13:29.675Z,28.42
2022-10-24T22:18:34.757Z,28.63
2022-10-24T22:23:38.241Z,27.35
2022-10-24T22:28:43.164Z,26.02
2022-10-24T22:33:49.160Z,25.80
2022-10-24T22:38:55.473Z,24.67
2022-10-24T22:44:01.522Z,24.80
2022-10-24T22:49:15.583Z,24.02
2022-10-24T22:54:25.807Z,23.60
2022-10-24T22:59:32.343Z,22.35
2022-10-24T23:04:45.950Z,21.55
2022-10-24T23:09:49.416Z,21.13
2022-10-24T23:14:55.506Z,20.70
2022-10-24T23:20:00.546Z,20.05
2022-10-24T23:25:05.670Z,19.60
2022-10-24T23:30:19.937Z,19.00
2022-10-24T23:35:25.120Z,18.48
2022-10-24T23:40:36.244Z,17.55
2022-10-24T23:45:55.167Z,17.50
2022-10-24T23:51:07.959Z,17.42
2022-10-24T23:56:14.585Z,16.85
